sensor_id;sensor_type;location;lat;lon;timestamp;P1;durP1;ratioP1;P2;durP2;ratioP2
55827;SDS011;41758;51.992;5.890;2022-08-01T00:01:42;11.02;;;7.20;;
55827;SDS011;41758;51.992;5.890;2022-08-01T00:04:09;10.02;;;7.07;;
55827;SDS011;41758;51.992;5.890;2022-08-01T00:06:38;11.18;;;6.30;;
55827;SDS011;41758;51.992;5.890;2022-08-01T00:09:05;11.43;;;7.25;;
55827;SDS011;41758;51.992;5.890;2022-08-01T00:11:38;10.82;;;6.72;;
55827;SDS011;41758;51.992;5.890;2022-08-01T00:14:08;9.73;;;6.95;;
55827;SDS011;41758;51.992;5.890;2022-08-01T00:31:17;12.07;;;7.63;;
55827;SDS011;41758;51.992;5.890;2022-08-01T00:33:46;11.30;;;7.97;;
55827;SDS011;41758;51.992;5.890;2022-08-01T00:36:14;9.70;;;7.35;;
55827;SDS011;41758;51.992;5.890;2022-08-01T00:38:40;8.63;;;6.40;;
55827;SDS011;41758;51.992;5.890;2022-08-01T00:41:14;9.65;;;6.90;;
55827;SDS011;41758;51.992;5.890;2022-08-01T00:43:52;10.40;;;7.00;;
55827;SDS011;41758;51.992;5.890;2022-08-01T00:46:57;10.48;;;7.43;;
55827;SDS011;41758;51.992;5.890;2022-08-01T00:50:11;9.90;;;7.45;;
55827;SDS011;41758;51.992;5.890;2022-08-01T00:56:51;11.90;;;8.30;;
55827;SDS011;41758;51.992;5.890;2022-08-01T00:59:47;11.18;;;7.55;;
55827;SDS011;41758;51.992;5.890;2022-08-01T01:02:52;14.68;;;8.65;;
55827;SDS011;41758;51.992;5.890;2022-08-01T01:05:26;11.32;;;7.88;;
55827;SDS011;41758;51.992;5.890;2022-08-01T01:08:07;13.30;;;8.23;;
55827;SDS011;41758;51.992;5.890;2022-08-01T01:36:30;9.05;;;5.72;;
55827;SDS011;41758;51.992;5.890;2022-08-01T01:39:00;9.75;;;6.40;;
55827;SDS011;41758;51.992;5.890;2022-08-01T01:42:10;10.80;;;7.20;;
55827;SDS011;41758;51.992;5.890;2022-08-01T01:45:08;11.30;;;7.00;;
55827;SDS011;41758;51.992;5.890;2022-08-01T01:51:01;9.20;;;6.38;;
55827;SDS011;41758;51.992;5.890;2022-08-01T01:53:40;9.75;;;6.43;;
55827;SDS011;41758;51.992;5.890;2022-08-01T01:56:18;10.52;;;6.88;;
55827;SDS011;41758;51.992;5.890;2022-08-01T01:58:53;10.43;;;6.40;;
55827;SDS011;41758;51.992;5.890;2022-08-01T02:01:27;8.90;;;5.68;;
55827;SDS011;41758;51.992;5.890;2022-08-01T02:03:56;12.00;;;7.03;;
55827;SDS011;41758;51.992;5.890;2022-08-01T02:06:23;10.73;;;7.10;;
55827;SDS011;41758;51.992;5.890;2022-08-01T02:08:52;10.55;;;6.25;;
55827;SDS011;41758;51.992;5.890;2022-08-01T02:11:20;7.78;;;4.80;;
55827;SDS011;41758;51.992;5.890;2022-08-01T02:13:48;10.63;;;6.40;;
55827;SDS011;41758;51.992;5.890;2022-08-01T02:16:17;9.88;;;6.35;;
55827;SDS011;41758;51.992;5.890;2022-08-01T02:18:45;9.65;;;5.47;;
55827;SDS011;41758;51.992;5.890;2022-08-01T02:21:12;11.18;;;5.93;;
55827;SDS011;41758;51.992;5.890;2022-08-01T02:23:39;10.43;;;6.70;;
55827;SDS011;41758;51.992;5.890;2022-08-01T02:26:07;10.45;;;6.25;;
55827;SDS011;41758;51.992;5.890;2022-08-01T02:28:49;11.95;;;5.63;;
55827;SDS011;41758;51.992;5.890;2022-08-01T02:31:20;9.30;;;5.70;;
55827;SDS011;41758;51.992;5.890;2022-08-01T02:33:50;12.13;;;5.47;;
55827;SDS011;41758;51.992;5.890;2022-08-01T02:36:21;9.60;;;6.28;;
55827;SDS011;41758;51.992;5.890;2022-08-01T02:38:50;9.70;;;5.82;;
55827;SDS011;41758;51.992;5.890;2022-08-01T02:41:19;11.90;;;6.10;;
55827;SDS011;41758;51.992;5.890;2022-08-01T02:43:47;11.05;;;6.18;;
55827;SDS011;41758;51.992;5.890;2022-08-01T02:46:17;10.00;;;6.05;;
55827;SDS011;41758;51.992;5.890;2022-08-01T02:49:00;11.05;;;6.05;;
55827;SDS011;41758;51.992;5.890;2022-08-01T02:51:28;8.25;;;5.00;;
55827;SDS011;41758;51.992;5.890;2022-08-01T02:53:56;9.88;;;5.50;;
55827;SDS011;41758;51.992;5.890;2022-08-01T02:56:24;9.27;;;5.40;;
55827;SDS011;41758;51.992;5.890;2022-08-01T02:59:00;10.15;;;5.68;;
55827;SDS011;41758;51.992;5.890;2022-08-01T03:01:32;9.52;;;5.70;;
55827;SDS011;41758;51.992;5.890;2022-08-01T03:04:02;10.95;;;6.03;;
55827;SDS011;41758;51.992;5.890;2022-08-01T03:06:30;8.98;;;5.13;;
55827;SDS011;41758;51.992;5.890;2022-08-01T03:08:57;9.75;;;5.47;;
55827;SDS011;41758;51.992;5.890;2022-08-01T03:11:25;11.82;;;5.90;;
55827;SDS011;41758;51.992;5.890;2022-08-01T03:13:52;13.02;;;6.13;;
55827;SDS011;41758;51.992;5.890;2022-08-01T03:16:20;12.80;;;6.57;;
55827;SDS011;41758;51.992;5.890;2022-08-01T03:18:48;9.98;;;6.35;;
55827;SDS011;41758;51.992;5.890;2022-08-01T03:21:14;8.25;;;5.22;;
55827;SDS011;41758;51.992;5.890;2022-08-01T03:23:42;7.25;;;4.20;;
55827;SDS011;41758;51.992;5.890;2022-08-01T03:26:09;7.10;;;3.97;;
55827;SDS011;41758;51.992;5.890;2022-08-01T03:28:36;6.70;;;3.80;;
55827;SDS011;41758;51.992;5.890;2022-08-01T03:31:03;6.20;;;3.75;;
55827;SDS011;41758;51.992;5.890;2022-08-01T03:33:30;5.90;;;3.17;;
55827;SDS011;41758;51.992;5.890;2022-08-01T03:35:55;6.38;;;3.90;;
55827;SDS011;41758;51.992;5.890;2022-08-01T03:38:24;5.13;;;3.42;;
55827;SDS011;41758;51.992;5.890;2022-08-01T03:40:53;7.65;;;3.67;;
55827;SDS011;41758;51.992;5.890;2022-08-01T03:43:36;6.80;;;4.30;;
55827;SDS011;41758;51.992;5.890;2022-08-01T03:46:07;6.68;;;4.25;;
55827;SDS011;41758;51.992;5.890;2022-08-01T03:48:39;8.50;;;4.53;;
55827;SDS011;41758;51.992;5.890;2022-08-01T03:51:07;7.80;;;4.38;;
55827;SDS011;41758;51.992;5.890;2022-08-01T03:53:35;6.85;;;4.13;;
55827;SDS011;41758;51.992;5.890;2022-08-01T03:56:03;6.65;;;4.40;;
55827;SDS011;41758;51.992;5.890;2022-08-01T03:58:33;7.53;;;4.28;;
55827;SDS011;41758;51.992;5.890;2022-08-01T04:01:00;6.28;;;3.78;;
55827;SDS011;41758;51.992;5.890;2022-08-01T04:03:26;7.50;;;4.10;;
55827;SDS011;41758;51.992;5.890;2022-08-01T04:05:53;6.25;;;3.92;;
55827;SDS011;41758;51.992;5.890;2022-08-01T04:08:18;6.85;;;4.22;;
55827;SDS011;41758;51.992;5.890;2022-08-01T04:10:44;7.57;;;3.90;;
55827;SDS011;41758;51.992;5.890;2022-08-01T04:13:10;6.90;;;3.63;;
55827;SDS011;41758;51.992;5.890;2022-08-01T04:15:35;8.95;;;4.60;;
55827;SDS011;41758;51.992;5.890;2022-08-01T04:18:01;7.60;;;4.72;;
55827;SDS011;41758;51.992;5.890;2022-08-01T04:20:27;6.75;;;4.20;;
55827;SDS011;41758;51.992;5.890;2022-08-01T04:22:52;7.10;;;4.38;;
55827;SDS011;41758;51.992;5.890;2022-08-01T04:25:23;7.25;;;4.68;;
55827;SDS011;41758;51.992;5.890;2022-08-01T04:28:00;6.78;;;4.82;;
55827;SDS011;41758;51.992;5.890;2022-08-01T04:30:29;7.35;;;4.30;;
55827;SDS011;41758;51.992;5.890;2022-08-01T04:32:59;8.13;;;4.97;;
55827;SDS011;41758;51.992;5.890;2022-08-01T04:35:26;7.68;;;5.15;;
55827;SDS011;41758;51.992;5.890;2022-08-01T04:37:53;8.40;;;5.40;;
55827;SDS011;41758;51.992;5.890;2022-08-01T04:40:19;7.47;;;4.60;;
55827;SDS011;41758;51.992;5.890;2022-08-01T04:42:47;7.53;;;4.82;;
55827;SDS011;41758;51.992;5.890;2022-08-01T04:45:14;7.07;;;5.05;;
55827;SDS011;41758;51.992;5.890;2022-08-01T04:47:40;7.93;;;4.88;;
55827;SDS011;41758;51.992;5.890;2022-08-01T04:50:08;8.32;;;4.80;;
55827;SDS011;41758;51.992;5.890;2022-08-01T04:52:35;6.82;;;5.00;;
55827;SDS011;41758;51.992;5.890;2022-08-01T04:55:02;7.65;;;4.53;;
55827;SDS011;41758;51.992;5.890;2022-08-01T04:57:29;7.88;;;4.55;;
55827;SDS011;41758;51.992;5.890;2022-08-01T04:59:55;8.52;;;5.00;;
55827;SDS011;41758;51.992;5.890;2022-08-01T05:02:22;9.35;;;4.95;;
55827;SDS011;41758;51.992;5.890;2022-08-01T05:04:47;6.97;;;4.95;;
55827;SDS011;41758;51.992;5.890;2022-08-01T05:07:14;9.20;;;4.95;;
55827;SDS011;41758;51.992;5.890;2022-08-01T05:09:41;7.90;;;5.18;;
55827;SDS011;41758;51.992;5.890;2022-08-01T05:12:07;6.70;;;4.45;;
55827;SDS011;41758;51.992;5.890;2022-08-01T05:14:34;8.23;;;5.00;;
55827;SDS011;41758;51.992;5.890;2022-08-01T05:17:01;7.32;;;4.80;;
55827;SDS011;41758;51.992;5.890;2022-08-01T05:19:29;7.50;;;4.78;;
55827;SDS011;41758;51.992;5.890;2022-08-01T05:21:59;8.35;;;5.00;;
55827;SDS011;41758;51.992;5.890;2022-08-01T05:24:28;7.22;;;4.70;;
55827;SDS011;41758;51.992;5.890;2022-08-01T05:26:57;7.25;;;4.53;;
55827;SDS011;41758;51.992;5.890;2022-08-01T05:29:24;7.18;;;4.50;;
55827;SDS011;41758;51.992;5.890;2022-08-01T05:31:50;8.27;;;4.75;;
55827;SDS011;41758;51.992;5.890;2022-08-01T05:34:16;6.78;;;4.30;;
55827;SDS011;41758;51.992;5.890;2022-08-01T05:36:43;9.55;;;4.63;;
55827;SDS011;41758;51.992;5.890;2022-08-01T05:39:09;6.85;;;4.65;;
55827;SDS011;41758;51.992;5.890;2022-08-01T05:41:38;6.45;;;4.10;;
55827;SDS011;41758;51.992;5.890;2022-08-01T05:44:04;7.35;;;4.60;;
55827;SDS011;41758;51.992;5.890;2022-08-01T05:46:30;7.72;;;5.13;;
55827;SDS011;41758;51.992;5.890;2022-08-01T05:48:57;8.93;;;4.47;;
55827;SDS011;41758;51.992;5.890;2022-08-01T05:51:23;8.23;;;4.63;;
55827;SDS011;41758;51.992;5.890;2022-08-01T05:53:49;7.20;;;5.22;;
55827;SDS011;41758;51.992;5.890;2022-08-01T05:56:15;6.82;;;4.60;;
55827;SDS011;41758;51.992;5.890;2022-08-01T05:58:41;6.35;;;4.13;;
55827;SDS011;41758;51.992;5.890;2022-08-01T06:01:07;5.95;;;3.67;;
55827;SDS011;41758;51.992;5.890;2022-08-01T06:03:32;5.95;;;3.38;;
55827;SDS011;41758;51.992;5.890;2022-08-01T06:05:58;4.45;;;2.80;;
55827;SDS011;41758;51.992;5.890;2022-08-01T06:08:25;4.90;;;2.70;;
55827;SDS011;41758;51.992;5.890;2022-08-01T06:10:51;4.43;;;2.78;;
55827;SDS011;41758;51.992;5.890;2022-08-01T06:13:18;4.13;;;2.50;;
55827;SDS011;41758;51.992;5.890;2022-08-01T06:23:08;3.35;;;2.00;;
55827;SDS011;41758;51.992;5.890;2022-08-01T06:26:04;3.63;;;1.92;;
55827;SDS011;41758;51.992;5.890;2022-08-01T06:28:42;5.80;;;2.10;;
55827;SDS011;41758;51.992;5.890;2022-08-01T06:31:38;3.53;;;2.00;;
55827;SDS011;41758;51.992;5.890;2022-08-01T06:34:04;3.03;;;1.67;;
55827;SDS011;41758;51.992;5.890;2022-08-01T06:36:29;2.97;;;1.77;;
55827;SDS011;41758;51.992;5.890;2022-08-01T06:38:55;2.78;;;1.52;;
55827;SDS011;41758;51.992;5.890;2022-08-01T06:41:21;3.65;;;1.80;;
55827;SDS011;41758;51.992;5.890;2022-08-01T06:43:46;2.83;;;1.60;;
55827;SDS011;41758;51.992;5.890;2022-08-01T06:46:12;3.92;;;1.83;;
55827;SDS011;41758;51.992;5.890;2022-08-01T06:48:37;4.13;;;1.90;;
55827;SDS011;41758;51.992;5.890;2022-08-01T06:51:05;2.78;;;1.60;;
55827;SDS011;41758;51.992;5.890;2022-08-01T06:53:37;2.75;;;1.52;;
55827;SDS011;41758;51.992;5.890;2022-08-01T06:56:04;3.65;;;1.90;;
55827;SDS011;41758;51.992;5.890;2022-08-01T06:58:30;2.63;;;1.42;;
55827;SDS011;41758;51.992;5.890;2022-08-01T07:00:56;4.10;;;1.60;;
55827;SDS011;41758;51.992;5.890;2022-08-01T07:03:22;3.08;;;1.70;;
55827;SDS011;41758;51.992;5.890;2022-08-01T07:05:48;4.10;;;1.98;;
55827;SDS011;41758;51.992;5.890;2022-08-01T07:08:13;3.20;;;1.90;;
55827;SDS011;41758;51.992;5.890;2022-08-01T07:10:39;4.88;;;1.75;;
55827;SDS011;41758;51.992;5.890;2022-08-01T07:13:04;2.75;;;1.50;;
55827;SDS011;41758;51.992;5.890;2022-08-01T07:15:30;2.90;;;1.67;;
55827;SDS011;41758;51.992;5.890;2022-08-01T07:17:56;3.15;;;1.60;;
55827;SDS011;41758;51.992;5.890;2022-08-01T07:20:22;4.10;;;2.00;;
55827;SDS011;41758;51.992;5.890;2022-08-01T07:22:48;2.38;;;1.48;;
55827;SDS011;41758;51.992;5.890;2022-08-01T07:25:14;2.97;;;1.67;;
55827;SDS011;41758;51.992;5.890;2022-08-01T07:27:40;5.18;;;1.83;;
55827;SDS011;41758;51.992;5.890;2022-08-01T07:30:06;3.65;;;1.70;;
55827;SDS011;41758;51.992;5.890;2022-08-01T07:32:32;3.63;;;1.80;;
55827;SDS011;41758;51.992;5.890;2022-08-01T07:34:59;2.63;;;1.70;;
55827;SDS011;41758;51.992;5.890;2022-08-01T07:37:25;3.42;;;1.60;;
55827;SDS011;41758;51.992;5.890;2022-08-01T07:39:51;3.35;;;1.83;;
55827;SDS011;41758;51.992;5.890;2022-08-01T07:42:17;3.95;;;1.85;;
55827;SDS011;41758;51.992;5.890;2022-08-01T07:44:42;3.75;;;1.88;;
55827;SDS011;41758;51.992;5.890;2022-08-01T07:47:08;3.03;;;1.55;;
55827;SDS011;41758;51.992;5.890;2022-08-01T07:49:39;4.50;;;1.60;;
55827;SDS011;41758;51.992;5.890;2022-08-01T07:52:10;3.03;;;1.50;;
55827;SDS011;41758;51.992;5.890;2022-08-01T07:54:38;3.63;;;1.80;;
55827;SDS011;41758;51.992;5.890;2022-08-01T07:57:04;3.80;;;1.60;;
55827;SDS011;41758;51.992;5.890;2022-08-01T07:59:30;3.70;;;1.70;;
55827;SDS011;41758;51.992;5.890;2022-08-01T08:01:56;4.55;;;1.90;;
55827;SDS011;41758;51.992;5.890;2022-08-01T08:04:21;4.78;;;2.20;;
55827;SDS011;41758;51.992;5.890;2022-08-01T08:06:47;4.25;;;1.80;;
55827;SDS011;41758;51.992;5.890;2022-08-01T08:09:14;4.50;;;2.10;;
55827;SDS011;41758;51.992;5.890;2022-08-01T08:11:41;4.03;;;1.83;;
55827;SDS011;41758;51.992;5.890;2022-08-01T08:14:08;5.35;;;1.88;;
55827;SDS011;41758;51.992;5.890;2022-08-01T08:16:34;3.78;;;1.77;;
55827;SDS011;41758;51.992;5.890;2022-08-01T08:18:59;4.22;;;2.10;;
55827;SDS011;41758;51.992;5.890;2022-08-01T08:21:25;4.57;;;1.83;;
55827;SDS011;41758;51.992;5.890;2022-08-01T08:23:51;5.00;;;1.90;;
55827;SDS011;41758;51.992;5.890;2022-08-01T08:26:35;4.18;;;2.00;;
55827;SDS011;41758;51.992;5.890;2022-08-01T08:29:02;5.20;;;1.85;;
55827;SDS011;41758;51.992;5.890;2022-08-01T08:31:28;7.63;;;2.28;;
55827;SDS011;41758;51.992;5.890;2022-08-01T08:33:54;5.28;;;2.00;;
55827;SDS011;41758;51.992;5.890;2022-08-01T08:36:19;5.13;;;2.22;;
55827;SDS011;41758;51.992;5.890;2022-08-01T08:38:45;3.67;;;1.80;;
55827;SDS011;41758;51.992;5.890;2022-08-01T08:41:11;4.57;;;2.10;;
55827;SDS011;41758;51.992;5.890;2022-08-01T08:43:37;5.03;;;2.00;;
55827;SDS011;41758;51.992;5.890;2022-08-01T08:46:05;5.38;;;1.98;;
55827;SDS011;41758;51.992;5.890;2022-08-01T08:48:34;3.85;;;2.00;;
55827;SDS011;41758;51.992;5.890;2022-08-01T08:51:01;4.32;;;2.00;;
55827;SDS011;41758;51.992;5.890;2022-08-01T08:53:27;3.67;;;1.90;;
55827;SDS011;41758;51.992;5.890;2022-08-01T08:55:56;4.65;;;1.80;;
55827;SDS011;41758;51.992;5.890;2022-08-01T08:58:23;4.13;;;1.95;;
55827;SDS011;41758;51.992;5.890;2022-08-01T09:00:51;4.88;;;2.15;;
55827;SDS011;41758;51.992;5.890;2022-08-01T09:03:18;3.25;;;1.70;;
55827;SDS011;41758;51.992;5.890;2022-08-01T09:05:44;2.92;;;1.75;;
55827;SDS011;41758;51.992;5.890;2022-08-01T09:08:10;3.42;;;2.10;;
55827;SDS011;41758;51.992;5.890;2022-08-01T09:10:35;3.80;;;2.00;;
55827;SDS011;41758;51.992;5.890;2022-08-01T09:13:11;4.00;;;1.85;;
55827;SDS011;41758;51.992;5.890;2022-08-01T09:15:48;4.45;;;1.95;;
55827;SDS011;41758;51.992;5.890;2022-08-01T09:21:07;5.13;;;2.30;;
55827;SDS011;41758;51.992;5.890;2022-08-01T09:23:46;4.13;;;1.83;;
55827;SDS011;41758;51.992;5.890;2022-08-01T09:26:14;5.15;;;2.10;;
55827;SDS011;41758;51.992;5.890;2022-08-01T09:28:42;4.70;;;2.00;;
55827;SDS011;41758;51.992;5.890;2022-08-01T09:31:09;4.63;;;2.08;;
55827;SDS011;41758;51.992;5.890;2022-08-01T09:33:50;4.20;;;2.00;;
55827;SDS011;41758;51.992;5.890;2022-08-01T09:36:21;4.68;;;2.15;;
55827;SDS011;41758;51.992;5.890;2022-08-01T09:38:49;4.55;;;2.22;;
55827;SDS011;41758;51.992;5.890;2022-08-01T09:41:16;4.53;;;2.72;;
55827;SDS011;41758;51.992;5.890;2022-08-01T09:43:47;5.70;;;2.85;;
55827;SDS011;41758;51.992;5.890;2022-08-01T09:46:16;6.22;;;2.72;;
55827;SDS011;41758;51.992;5.890;2022-08-01T09:49:26;4.88;;;2.50;;
55827;SDS011;41758;51.992;5.890;2022-08-01T09:51:33;6.85;;;2.90;;
55827;SDS011;41758;51.992;5.890;2022-08-01T09:54:00;6.25;;;2.80;;
55827;SDS011;41758;51.992;5.890;2022-08-01T09:56:37;8.02;;;3.55;;
55827;SDS011;41758;51.992;5.890;2022-08-01T09:59:04;6.00;;;2.58;;
55827;SDS011;41758;51.992;5.890;2022-08-01T10:04:17;7.67;;;3.67;;
55827;SDS011;41758;51.992;5.890;2022-08-01T10:06:48;8.88;;;3.60;;
55827;SDS011;41758;51.992;5.890;2022-08-01T10:09:36;6.25;;;3.33;;
55827;SDS011;41758;51.992;5.890;2022-08-01T10:12:04;6.13;;;3.28;;
55827;SDS011;41758;51.992;5.890;2022-08-01T10:14:33;8.75;;;4.03;;
55827;SDS011;41758;51.992;5.890;2022-08-01T10:17:11;6.22;;;3.20;;
55827;SDS011;41758;51.992;5.890;2022-08-01T10:19:41;7.30;;;3.00;;
55827;SDS011;41758;51.992;5.890;2022-08-01T10:22:12;6.18;;;2.97;;
55827;SDS011;41758;51.992;5.890;2022-08-01T10:24:43;7.75;;;3.50;;
55827;SDS011;41758;51.992;5.890;2022-08-01T10:27:11;9.52;;;3.15;;
55827;SDS011;41758;51.992;5.890;2022-08-01T10:29:58;7.70;;;3.40;;
55827;SDS011;41758;51.992;5.890;2022-08-01T10:32:33;7.13;;;3.20;;
55827;SDS011;41758;51.992;5.890;2022-08-01T10:35:00;8.27;;;3.53;;
55827;SDS011;41758;51.992;5.890;2022-08-01T10:37:28;8.27;;;3.60;;
55827;SDS011;41758;51.992;5.890;2022-08-01T10:39:54;7.00;;;2.67;;
55827;SDS011;41758;51.992;5.890;2022-08-01T10:42:21;6.95;;;3.03;;
55827;SDS011;41758;51.992;5.890;2022-08-01T10:44:47;6.15;;;2.72;;
55827;SDS011;41758;51.992;5.890;2022-08-01T10:47:14;6.72;;;3.10;;
55827;SDS011;41758;51.992;5.890;2022-08-01T10:49:58;5.88;;;2.65;;
55827;SDS011;41758;51.992;5.890;2022-08-01T10:52:41;7.03;;;2.88;;
55827;SDS011;41758;51.992;5.890;2022-08-01T10:55:07;7.50;;;2.97;;
55827;SDS011;41758;51.992;5.890;2022-08-01T10:57:57;5.22;;;2.65;;
55827;SDS011;41758;51.992;5.890;2022-08-01T11:03:40;10.15;;;3.33;;
55827;SDS011;41758;51.992;5.890;2022-08-01T11:06:07;7.70;;;3.30;;
55827;SDS011;41758;51.992;5.890;2022-08-01T11:08:52;6.00;;;2.58;;
55827;SDS011;41758;51.992;5.890;2022-08-01T11:11:19;7.28;;;2.80;;
55827;SDS011;41758;51.992;5.890;2022-08-01T11:16:37;7.90;;;3.38;;
55827;SDS011;41758;51.992;5.890;2022-08-01T11:19:08;7.55;;;3.13;;
55827;SDS011;41758;51.992;5.890;2022-08-01T11:27:16;7.68;;;2.88;;
55827;SDS011;41758;51.992;5.890;2022-08-01T11:32:49;7.28;;;2.20;;
55827;SDS011;41758;51.992;5.890;2022-08-01T11:35:17;5.25;;;2.40;;
55827;SDS011;41758;51.992;5.890;2022-08-01T11:37:45;6.03;;;2.72;;
55827;SDS011;41758;51.992;5.890;2022-08-01T11:45:55;6.47;;;2.78;;
55827;SDS011;41758;51.992;5.890;2022-08-01T11:48:22;9.43;;;3.22;;
55827;SDS011;41758;51.992;5.890;2022-08-01T11:50:49;6.82;;;2.42;;
55827;SDS011;41758;51.992;5.890;2022-08-01T11:53:16;5.88;;;2.33;;
55827;SDS011;41758;51.992;5.890;2022-08-01T11:55:46;8.85;;;3.00;;
55827;SDS011;41758;51.992;5.890;2022-08-01T11:58:15;7.88;;;3.00;;
55827;SDS011;41758;51.992;5.890;2022-08-01T12:00:55;6.93;;;2.50;;
55827;SDS011;41758;51.992;5.890;2022-08-01T12:03:29;8.38;;;3.22;;
55827;SDS011;41758;51.992;5.890;2022-08-01T12:05:57;6.60;;;2.40;;
55827;SDS011;41758;51.992;5.890;2022-08-01T12:08:24;4.25;;;2.20;;
55827;SDS011;41758;51.992;5.890;2022-08-01T12:10:51;7.50;;;2.42;;
55827;SDS011;41758;51.992;5.890;2022-08-01T12:13:20;6.32;;;2.20;;
55827;SDS011;41758;51.992;5.890;2022-08-01T12:15:46;5.43;;;2.17;;
55827;SDS011;41758;51.992;5.890;2022-08-01T12:18:13;6.03;;;2.50;;
55827;SDS011;41758;51.992;5.890;2022-08-01T12:20:40;6.68;;;2.40;;
55827;SDS011;41758;51.992;5.890;2022-08-01T12:23:15;5.88;;;2.35;;
55827;SDS011;41758;51.992;5.890;2022-08-01T12:25:41;4.88;;;2.22;;
55827;SDS011;41758;51.992;5.890;2022-08-01T12:28:12;6.32;;;2.15;;
55827;SDS011;41758;51.992;5.890;2022-08-01T12:30:39;5.65;;;2.10;;
55827;SDS011;41758;51.992;5.890;2022-08-01T12:33:06;7.85;;;2.30;;
55827;SDS011;41758;51.992;5.890;2022-08-01T12:35:34;8.40;;;2.40;;
55827;SDS011;41758;51.992;5.890;2022-08-01T12:38:05;6.72;;;2.20;;
55827;SDS011;41758;51.992;5.890;2022-08-01T12:40:40;7.22;;;2.22;;
55827;SDS011;41758;51.992;5.890;2022-08-01T12:43:07;5.97;;;2.00;;
55827;SDS011;41758;51.992;5.890;2022-08-01T12:45:38;4.53;;;1.98;;
55827;SDS011;41758;51.992;5.890;2022-08-01T12:48:07;5.95;;;2.03;;
55827;SDS011;41758;51.992;5.890;2022-08-01T12:50:36;6.55;;;1.98;;
55827;SDS011;41758;51.992;5.890;2022-08-01T12:53:04;4.45;;;1.92;;
55827;SDS011;41758;51.992;5.890;2022-08-01T12:55:30;4.97;;;1.90;;
55827;SDS011;41758;51.992;5.890;2022-08-01T12:58:10;7.35;;;2.28;;
55827;SDS011;41758;51.992;5.890;2022-08-01T13:00:38;5.70;;;2.00;;
55827;SDS011;41758;51.992;5.890;2022-08-01T13:03:08;6.68;;;2.03;;
55827;SDS011;41758;51.992;5.890;2022-08-01T13:08:29;5.13;;;2.00;;
55827;SDS011;41758;51.992;5.890;2022-08-01T13:11:03;4.88;;;1.95;;
55827;SDS011;41758;51.992;5.890;2022-08-01T13:13:41;6.32;;;2.30;;
55827;SDS011;41758;51.992;5.890;2022-08-01T13:16:07;6.47;;;2.15;;
55827;SDS011;41758;51.992;5.890;2022-08-01T13:18:34;5.30;;;2.28;;
55827;SDS011;41758;51.992;5.890;2022-08-01T13:23:40;5.15;;;1.98;;
55827;SDS011;41758;51.992;5.890;2022-08-01T13:31:38;7.13;;;2.10;;
55827;SDS011;41758;51.992;5.890;2022-08-01T13:34:04;4.88;;;2.00;;
55827;SDS011;41758;51.992;5.890;2022-08-01T13:36:30;4.50;;;1.90;;
55827;SDS011;41758;51.992;5.890;2022-08-01T13:38:57;5.60;;;2.05;;
55827;SDS011;41758;51.992;5.890;2022-08-01T13:41:42;7.30;;;1.88;;
55827;SDS011;41758;51.992;5.890;2022-08-01T13:44:08;4.93;;;1.95;;
55827;SDS011;41758;51.992;5.890;2022-08-01T13:46:35;5.53;;;1.92;;
55827;SDS011;41758;51.992;5.890;2022-08-01T13:49:06;5.30;;;2.00;;
55827;SDS011;41758;51.992;5.890;2022-08-01T13:51:32;6.90;;;2.08;;
55827;SDS011;41758;51.992;5.890;2022-08-01T13:53:58;5.07;;;1.92;;
55827;SDS011;41758;51.992;5.890;2022-08-01T13:56:24;4.82;;;1.80;;
55827;SDS011;41758;51.992;5.890;2022-08-01T13:58:53;4.65;;;1.90;;
55827;SDS011;41758;51.992;5.890;2022-08-01T14:01:19;5.07;;;2.00;;
55827;SDS011;41758;51.992;5.890;2022-08-01T14:03:45;9.18;;;2.00;;
55827;SDS011;41758;51.992;5.890;2022-08-01T14:06:12;5.13;;;1.95;;
55827;SDS011;41758;51.992;5.890;2022-08-01T14:08:39;4.15;;;1.60;;
55827;SDS011;41758;51.992;5.890;2022-08-01T14:11:04;4.05;;;1.90;;
55827;SDS011;41758;51.992;5.890;2022-08-01T14:13:30;5.68;;;1.90;;
55827;SDS011;41758;51.992;5.890;2022-08-01T14:15:58;5.45;;;1.60;;
55827;SDS011;41758;51.992;5.890;2022-08-01T14:18:26;3.90;;;1.60;;
55827;SDS011;41758;51.992;5.890;2022-08-01T14:20:54;6.03;;;1.55;;
55827;SDS011;41758;51.992;5.890;2022-08-01T14:23:19;3.53;;;1.40;;
55827;SDS011;41758;51.992;5.890;2022-08-01T14:25:45;5.22;;;1.80;;
55827;SDS011;41758;51.992;5.890;2022-08-01T14:28:14;9.38;;;2.13;;
55827;SDS011;41758;51.992;5.890;2022-08-01T14:30:40;4.32;;;1.48;;
55827;SDS011;41758;51.992;5.890;2022-08-01T14:33:12;4.47;;;1.65;;
55827;SDS011;41758;51.992;5.890;2022-08-01T14:35:38;4.53;;;1.50;;
55827;SDS011;41758;51.992;5.890;2022-08-01T14:38:04;3.38;;;1.52;;
55827;SDS011;41758;51.992;5.890;2022-08-01T14:40:30;3.33;;;1.60;;
55827;SDS011;41758;51.992;5.890;2022-08-01T14:42:56;2.97;;;1.48;;
55827;SDS011;41758;51.992;5.890;2022-08-01T14:45:22;4.28;;;1.60;;
55827;SDS011;41758;51.992;5.890;2022-08-01T14:47:47;3.65;;;1.40;;
55827;SDS011;41758;51.992;5.890;2022-08-01T14:50:14;4.82;;;1.75;;
55827;SDS011;41758;51.992;5.890;2022-08-01T14:52:41;4.22;;;1.33;;
55827;SDS011;41758;51.992;5.890;2022-08-01T14:55:08;3.75;;;1.38;;
55827;SDS011;41758;51.992;5.890;2022-08-01T14:57:35;4.53;;;1.70;;
55827;SDS011;41758;51.992;5.890;2022-08-01T15:00:03;4.47;;;1.42;;
55827;SDS011;41758;51.992;5.890;2022-08-01T15:02:30;4.60;;;1.50;;
55827;SDS011;41758;51.992;5.890;2022-08-01T15:04:55;3.90;;;1.38;;
55827;SDS011;41758;51.992;5.890;2022-08-01T15:07:21;4.25;;;1.50;;
55827;SDS011;41758;51.992;5.890;2022-08-01T15:09:47;3.40;;;1.45;;
55827;SDS011;41758;51.992;5.890;2022-08-01T15:12:12;4.20;;;1.50;;
55827;SDS011;41758;51.992;5.890;2022-08-01T15:14:38;4.18;;;1.60;;
55827;SDS011;41758;51.992;5.890;2022-08-01T15:17:17;4.38;;;1.75;;
55827;SDS011;41758;51.992;5.890;2022-08-01T15:19:47;3.50;;;1.40;;
55827;SDS011;41758;51.992;5.890;2022-08-01T15:22:14;5.03;;;1.70;;
55827;SDS011;41758;51.992;5.890;2022-08-01T15:24:40;3.30;;;1.30;;
55827;SDS011;41758;51.992;5.890;2022-08-01T15:27:07;6.63;;;1.60;;
55827;SDS011;41758;51.992;5.890;2022-08-01T15:29:33;4.95;;;1.30;;
55827;SDS011;41758;51.992;5.890;2022-08-01T15:32:00;4.53;;;1.58;;
55827;SDS011;41758;51.992;5.890;2022-08-01T15:34:28;4.75;;;1.30;;
55827;SDS011;41758;51.992;5.890;2022-08-01T15:36:54;2.30;;;1.20;;
55827;SDS011;41758;51.992;5.890;2022-08-01T15:39:20;3.65;;;1.33;;
55827;SDS011;41758;51.992;5.890;2022-08-01T15:41:46;2.25;;;1.35;;
55827;SDS011;41758;51.992;5.890;2022-08-01T15:44:11;3.88;;;1.60;;
55827;SDS011;41758;51.992;5.890;2022-08-01T15:46:37;3.53;;;1.50;;
55827;SDS011;41758;51.992;5.890;2022-08-01T15:49:03;3.88;;;1.60;;
55827;SDS011;41758;51.992;5.890;2022-08-01T15:51:30;6.15;;;1.70;;
55827;SDS011;41758;51.992;5.890;2022-08-01T15:53:56;3.15;;;1.40;;
55827;SDS011;41758;51.992;5.890;2022-08-01T15:56:22;2.65;;;1.30;;
55827;SDS011;41758;51.992;5.890;2022-08-01T15:58:49;4.95;;;1.30;;
55827;SDS011;41758;51.992;5.890;2022-08-01T16:01:15;3.95;;;1.35;;
55827;SDS011;41758;51.992;5.890;2022-08-01T16:03:41;4.03;;;1.40;;
55827;SDS011;41758;51.992;5.890;2022-08-01T16:06:07;2.88;;;1.38;;
55827;SDS011;41758;51.992;5.890;2022-08-01T16:08:33;3.65;;;1.42;;
55827;SDS011;41758;51.992;5.890;2022-08-01T16:11:02;4.18;;;1.30;;
55827;SDS011;41758;51.992;5.890;2022-08-01T16:13:27;2.33;;;1.20;;
55827;SDS011;41758;51.992;5.890;2022-08-01T16:15:55;4.00;;;1.33;;
55827;SDS011;41758;51.992;5.890;2022-08-01T16:18:23;3.33;;;1.38;;
55827;SDS011;41758;51.992;5.890;2022-08-01T16:20:48;3.55;;;1.30;;
55827;SDS011;41758;51.992;5.890;2022-08-01T16:23:17;4.25;;;1.30;;
55827;SDS011;41758;51.992;5.890;2022-08-01T16:25:43;3.13;;;1.20;;
55827;SDS011;41758;51.992;5.890;2022-08-01T16:28:09;3.15;;;1.20;;
55827;SDS011;41758;51.992;5.890;2022-08-01T16:30:36;3.53;;;1.20;;